Terminal Aerodrome Forecast
Issued by NWS Houston/Galveston, TX

Home | Current Version | Previous Version | Text Only | Print | Product List | Glossary On
Versions: 1 2 3 4 5 6 7 8 9 10 11 12 13 14 15 16 17 18 19 20 21 22 23 24 25 26
000
FTUS44 KHGX 291130
TAFCLL
TAF
KCLL 291130Z 2912/3012 16011G19KT 6SM BR OVC015
     FM291500 16015KT P6SM SCT015 BKN025
     FM292000 16016G26KT P6SM VCTS SCT030CB
     FM300200 17012KT 6SM TSRA SCT025 BKN035CB
     FM300800 18008KT P6SM VCTS OVC015CB=

USA.gov is the U.S. government's official web portal to all federal, state and local government web resources and services.